Time;durP1;ratioP1;P1;durP2;ratioP2;P2;SDS_P1;SDS_P2;PMS_P1;PMS_P2;Temp;Humidity;BMP_temperature;BMP_pressure;BME280_temperature;BME280_humidity;BME280_pressure;Samples;Min_cycle;Max_cycle;Signal;HPM_P1;HPM_P2
2022/07/29 00:00:13;;;;;;;4.45;2.30;;;14.80;99.90;;;;;;4996242;28;20498;-88
2022/07/29 00:02:39;;;;;;;3.60;1.88;;;14.80;99.90;;;;;;5013431;28;20185;-88
2022/07/29 00:05:05;;;;;;;4.05;1.88;;;14.80;99.90;;;;;;4996323;28;20197;-89
2022/07/29 00:07:31;;;;;;;3.33;2.30;;;14.80;99.90;;;;;;5013545;28;20173;-90
2022/07/29 00:09:56;;;;;;;2.05;1.58;;;14.80;99.90;;;;;;4997099;28;20181;-89
2022/07/29 00:12:24;;;;;;;4.40;2.22;;;14.70;99.90;;;;;;4985919;28;20180;-90
2022/07/29 00:14:49;;;;;;;4.43;2.70;;;14.80;99.90;;;;;;5022901;28;20200;-90
2022/07/29 00:17:15;;;;;;;2.88;2.10;;;14.70;99.90;;;;;;5017515;28;20178;-89
2022/07/29 00:19:41;;;;;;;5.60;2.38;;;14.70;99.90;;;;;;5024986;28;20213;-88
2022/07/29 00:22:07;;;;;;;5.75;2.03;;;14.70;99.90;;;;;;4996434;28;20205;-89
2022/07/29 00:24:32;;;;;;;4.90;1.98;;;14.70;99.90;;;;;;5017951;28;20221;-89
2022/07/29 00:26:58;;;;;;;3.42;2.28;;;14.60;99.90;;;;;;5004435;28;20173;-89
2022/07/29 00:29:24;;;;;;;2.08;1.67;;;14.60;99.90;;;;;;5014948;28;20184;-88
2022/07/29 00:31:49;;;;;;;2.63;2.30;;;14.60;99.90;;;;;;5012888;28;20642;-89
2022/07/29 00:36:59;;;;;;;4.75;2.60;;;14.50;99.90;;;;;;4998579;28;20657;-89
2022/07/29 00:39:25;;;;;;;7.97;2.70;;;14.50;99.90;;;;;;4995825;28;20220;-88
2022/07/29 00:41:51;;;;;;;2.85;1.70;;;14.40;99.90;;;;;;4981123;28;20173;-88
2022/07/29 00:44:17;;;;;;;3.95;2.67;;;14.40;99.90;;;;;;5017304;28;20177;-88
2022/07/29 00:46:42;;;;;;;4.22;2.10;;;14.30;99.90;;;;;;5016554;28;20173;-88
2022/07/29 00:49:08;;;;;;;4.65;2.03;;;14.30;99.90;;;;;;4999671;28;20181;-90
2022/07/29 00:51:38;;;;;;;3.90;2.50;;;14.30;99.90;;;;;;4998992;28;20229;-88
2022/07/29 00:54:04;;;;;;;4.40;2.22;;;14.20;99.90;;;;;;4983323;28;20661;-89
2022/07/29 00:56:31;;;;;;;5.40;2.03;;;14.30;99.90;;;;;;5016892;28;20183;-88
2022/07/29 00:58:58;;;;;;;1.75;1.50;;;14.20;99.90;;;;;;5017034;28;20209;-89
2022/07/29 01:01:23;;;;;;;1.75;1.25;;;14.20;99.90;;;;;;4998914;28;20184;-89
2022/07/29 01:03:49;;;;;;;2.42;1.65;;;14.20;99.90;;;;;;4998957;28;20204;-89
2022/07/29 01:06:17;;;;;;;2.20;1.77;;;14.10;99.90;;;;;;4999334;28;20200;-89
2022/07/29 01:08:45;;;;;;;3.30;2.38;;;14.10;99.90;;;;;;5016265;28;20642;-89
2022/07/29 01:11:11;;;;;;;3.38;1.50;;;14.10;99.90;;;;;;5016720;28;20634;-89
2022/07/29 01:13:36;;;;;;;1.95;1.73;;;14.00;99.90;;;;;;4999127;28;20639;-88
2022/07/29 01:16:21;;;;;;;2.85;2.08;;;14.00;99.90;;;;;;5017221;28;20185;-89
2022/07/29 01:18:49;;;;;;;3.15;2.00;;;14.00;99.90;;;;;;5016720;28;20165;-89
2022/07/29 01:21:33;;;;;;;3.55;2.20;;;14.00;99.90;;;;;;4999278;28;20197;-89
2022/07/29 01:24:40;;;;;;;3.45;2.25;;;14.00;99.90;;;;;;4999159;28;20188;-88
2022/07/29 01:27:28;;;;;;;5.35;2.33;;;14.00;99.90;;;;;;4968060;28;20235;-88
2022/07/29 01:29:58;;;;;;;2.75;1.83;;;14.00;99.90;;;;;;4998642;28;20185;-88
2022/07/29 01:32:27;;;;;;;1.83;1.63;;;14.00;99.90;;;;;;5016105;28;20866;-88
2022/07/29 01:35:04;;;;;;;2.75;2.05;;;13.90;99.90;;;;;;4998433;28;20192;-89
2022/07/29 01:37:42;;;;;;;2.33;2.03;;;13.90;99.90;;;;;;4998668;28;20685;-88
2022/07/29 01:40:17;;;;;;;3.85;2.10;;;13.90;99.90;;;;;;5016084;28;20203;-89
2022/07/29 01:42:48;;;;;;;2.63;1.95;;;13.90;99.90;;;;;;5016122;28;20196;-89
2022/07/29 01:45:32;;;;;;;2.40;2.20;;;13.80;99.90;;;;;;4999425;28;20170;-89
2022/07/29 01:48:06;;;;;;;3.10;2.13;;;13.80;99.90;;;;;;4998403;28;20180;-89
2022/07/29 01:50:38;;;;;;;6.07;2.17;;;13.80;99.90;;;;;;5016060;28;20231;-89
2022/07/29 01:53:10;;;;;;;2.67;1.92;;;13.70;99.90;;;;;;5015503;28;20176;-89
2022/07/29 01:55:40;;;;;;;3.88;2.22;;;13.80;99.90;;;;;;5016172;28;20184;-89
2022/07/29 01:58:08;;;;;;;4.25;2.00;;;13.70;99.90;;;;;;5016105;28;20184;-89
2022/07/29 02:00:34;;;;;;;2.47;1.67;;;13.70;99.90;;;;;;4998341;28;20205;-89
2022/07/29 02:03:08;;;;;;;5.70;2.25;;;13.70;99.90;;;;;;4998269;28;20638;-88
2022/07/29 02:05:34;;;;;;;4.05;2.28;;;13.60;99.90;;;;;;5006862;28;20153;-88
2022/07/29 02:08:02;;;;;;;3.65;2.22;;;13.70;99.90;;;;;;5019973;28;20216;-88
2022/07/29 02:10:30;;;;;;;4.45;2.67;;;13.60;99.90;;;;;;5037801;28;20181;-88
2022/07/29 02:12:58;;;;;;;4.68;2.60;;;13.60;99.90;;;;;;5029732;28;20178;-88
2022/07/29 02:15:26;;;;;;;4.45;2.42;;;13.70;99.90;;;;;;5023196;28;20168;-88
2022/07/29 02:18:00;;;;;;;2.85;2.08;;;13.70;99.90;;;;;;5025742;28;20637;-89
2022/07/29 02:20:28;;;;;;;3.05;1.90;;;13.70;99.90;;;;;;4998805;28;20205;-89
2022/07/29 02:22:55;;;;;;;1.85;1.67;;;13.60;99.90;;;;;;5016013;28;20170;-89
2022/07/29 02:25:23;;;;;;;4.68;2.08;;;13.60;99.90;;;;;;5015512;28;20189;-89
2022/07/29 02:27:50;;;;;;;3.63;1.83;;;13.60;99.90;;;;;;4998610;28;20173;-90
2022/07/29 02:30:18;;;;;;;3.50;2.42;;;13.60;99.90;;;;;;5016255;28;20224;-89
2022/07/29 02:32:46;;;;;;;2.13;1.92;;;13.60;99.90;;;;;;4998131;28;20232;-89
2022/07/29 02:35:14;;;;;;;2.55;2.15;;;13.60;99.90;;;;;;5000192;28;20177;-89
2022/07/29 02:37:41;;;;;;;1.63;1.52;;;13.60;99.90;;;;;;5000713;28;20354;-89
2022/07/29 02:40:11;;;;;;;2.80;2.00;;;13.50;99.90;;;;;;4999468;28;20689;-89
2022/07/29 02:42:38;;;;;;;2.10;1.88;;;13.50;99.90;;;;;;5015710;28;20243;-89
2022/07/29 02:45:06;;;;;;;2.22;1.75;;;13.50;99.90;;;;;;5016320;28;20680;-89
2022/07/29 02:47:38;;;;;;;2.45;2.10;;;13.50;99.90;;;;;;4983149;28;20650;-90
2022/07/29 02:50:15;;;;;;;4.72;2.30;;;13.50;99.90;;;;;;5016628;28;20227;-89
2022/07/29 02:53:01;;;;;;;2.78;2.03;;;13.50;99.90;;;;;;4998463;28;20177;-89
2022/07/29 02:55:48;;;;;;;2.08;1.70;;;13.50;99.90;;;;;;5015241;28;20172;-90
2022/07/29 02:58:28;;;;;;;3.97;2.45;;;13.40;99.90;;;;;;4997517;28;20224;-89
2022/07/29 03:00:56;;;;;;;2.85;2.53;;;13.40;99.90;;;;;;4996836;28;20299;-89
2022/07/29 03:03:25;;;;;;;2.63;1.85;;;13.40;99.90;;;;;;5014678;28;20231;-89
2022/07/29 03:05:57;;;;;;;4.38;1.85;;;13.40;99.90;;;;;;5014227;28;20185;-91
2022/07/29 03:08:24;;;;;;;4.07;2.03;;;13.30;99.90;;;;;;5015173;28;20173;-89
2022/07/29 03:10:51;;;;;;;1.52;1.40;;;13.50;99.90;;;;;;4997227;28;20217;-92
2022/07/29 03:13:18;;;;;;;2.17;1.80;;;13.40;99.90;;;;;;5015354;28;20276;-93
2022/07/29 03:15:45;;;;;;;4.28;2.30;;;13.30;99.90;;;;;;4998246;28;20182;-92
2022/07/29 03:18:12;;;;;;;3.58;2.03;;;13.40;99.90;;;;;;4997111;28;20189;-92
2022/07/29 03:20:38;;;;;;;1.80;1.70;;;13.50;99.90;;;;;;4996822;28;20220;-91
2022/07/29 03:23:04;;;;;;;3.78;1.95;;;13.50;99.90;;;;;;5014317;28;20223;-91
2022/07/29 03:25:30;;;;;;;2.88;2.20;;;13.50;99.90;;;;;;4997067;28;20177;-91
2022/07/29 03:27:56;;;;;;;5.65;2.60;;;13.60;99.90;;;;;;4996659;28;20177;-94
2022/07/29 03:30:22;;;;;;;4.03;1.98;;;13.40;99.90;;;;;;4997361;28;20188;-91
2022/07/29 03:32:49;;;;;;;5.45;1.67;;;13.50;99.90;;;;;;5014040;28;20244;-91
2022/07/29 03:35:16;;;;;;;4.75;2.15;;;13.60;99.90;;;;;;5014153;28;20180;-91
2022/07/29 03:37:42;;;;;;;3.78;2.30;;;13.70;99.90;;;;;;4996785;28;20181;-91
2022/07/29 03:40:11;;;;;;;2.70;2.15;;;13.70;99.90;;;;;;4996436;28;20561;-91
2022/07/29 03:42:39;;;;;;;4.25;2.50;;;13.70;99.90;;;;;;5014579;28;20626;-91
2022/07/29 03:45:12;;;;;;;2.08;1.65;;;13.80;99.90;;;;;;5014150;28;20173;-92
2022/07/29 03:47:42;;;;;;;4.78;2.13;;;13.80;99.90;;;;;;4996967;28;20181;-92
2022/07/29 03:50:11;;;;;;;3.20;2.25;;;14.00;99.90;;;;;;5014558;28;20165;-92
2022/07/29 03:52:37;;;;;;;4.00;2.08;;;13.90;99.90;;;;;;5001599;28;20185;-92
2022/07/29 03:55:04;;;;;;;2.78;1.88;;;13.90;99.90;;;;;;5009749;28;20181;-91
2022/07/29 03:57:31;;;;;;;4.60;2.28;;;14.00;99.90;;;;;;5016647;28;20249;-91
2022/07/29 03:59:57;;;;;;;2.05;1.60;;;14.20;99.90;;;;;;5010094;28;20741;-92
2022/07/29 04:02:25;;;;;;;2.22;2.03;;;14.10;99.90;;;;;;4997413;28;20264;-92
2022/07/29 04:04:51;;;;;;;2.60;1.75;;;14.30;99.90;;;;;;5010769;28;20177;-92
2022/07/29 04:07:17;;;;;;;4.22;2.13;;;14.30;99.90;;;;;;5006248;28;20548;-90
2022/07/29 04:09:43;;;;;;;2.50;2.00;;;14.40;99.90;;;;;;4997780;28;20185;-91
2022/07/29 04:12:09;;;;;;;2.67;2.30;;;14.30;99.90;;;;;;5014095;28;20179;-91
2022/07/29 04:14:35;;;;;;;3.47;2.38;;;14.50;99.90;;;;;;4997342;28;20181;-92
2022/07/29 04:17:02;;;;;;;2.78;2.25;;;14.60;99.90;;;;;;5016177;28;20264;-92
2022/07/29 04:19:27;;;;;;;2.20;1.60;;;14.60;99.90;;;;;;5000666;28;20635;-92
2022/07/29 04:21:53;;;;;;;2.08;1.60;;;14.80;99.90;;;;;;5000606;28;20208;-91
2022/07/29 04:24:18;;;;;;;2.30;1.88;;;14.90;99.90;;;;;;5000494;28;20185;-91
2022/07/29 04:26:46;;;;;;;1.77;1.45;;;15.00;99.90;;;;;;5018457;28;20192;-91
2022/07/29 04:29:13;;;;;;;3.65;2.05;;;15.10;99.90;;;;;;5001470;28;20300;-91
2022/07/29 04:31:40;;;;;;;3.30;2.05;;;15.20;99.90;;;;;;5018375;28;20177;-93
2022/07/29 04:34:06;;;;;;;2.10;1.65;;;15.30;99.90;;;;;;5017214;28;20224;-93
2022/07/29 04:36:31;;;;;;;1.95;1.60;;;15.40;99.90;;;;;;5018359;28;20649;-93
2022/07/29 04:38:58;;;;;;;4.07;1.90;;;15.40;99.90;;;;;;5000340;28;20693;-90
2022/07/29 04:41:23;;;;;;;4.13;2.28;;;15.50;99.90;;;;;;5017769;28;20196;-91
2022/07/29 04:43:49;;;;;;;2.95;1.92;;;15.50;99.90;;;;;;4983931;28;20709;-90
2022/07/29 04:46:15;;;;;;;3.78;1.88;;;15.60;99.90;;;;;;5000292;28;20178;-91
2022/07/29 04:48:40;;;;;;;4.32;1.80;;;15.70;99.90;;;;;;5000368;28;20688;-91
2022/07/29 04:51:06;;;;;;;2.25;1.38;;;15.80;99.90;;;;;;5000039;28;20227;-91
2022/07/29 04:53:32;;;;;;;2.60;1.67;;;15.80;99.90;;;;;;4984383;28;20177;-92
2022/07/29 04:55:58;;;;;;;4.78;1.95;;;15.90;99.90;;;;;;5019058;28;20228;-92
2022/07/29 04:58:24;;;;;;;3.33;1.67;;;16.00;99.90;;;;;;5004217;28;20634;-91
2022/07/29 05:00:50;;;;;;;4.60;1.90;;;16.10;99.90;;;;;;5007161;28;20301;-90
2022/07/29 05:03:16;;;;;;;1.58;1.48;;;16.10;99.90;;;;;;5027690;28;20208;-92
2022/07/29 05:05:42;;;;;;;1.98;1.55;;;16.20;99.90;;;;;;5030844;28;20182;-91
2022/07/29 05:08:08;;;;;;;2.28;1.70;;;16.30;99.90;;;;;;5014424;28;20196;-93
2022/07/29 05:10:37;;;;;;;1.80;1.70;;;16.40;99.90;;;;;;5016139;28;20253;-91
2022/07/29 05:13:06;;;;;;;2.78;1.23;;;16.50;99.90;;;;;;5016250;28;20173;-89
2022/07/29 05:15:32;;;;;;;3.42;1.50;;;16.60;99.90;;;;;;5034764;28;20184;-90
2022/07/29 05:18:02;;;;;;;2.25;1.20;;;16.70;99.90;;;;;;5023953;28;20204;-90
2022/07/29 05:20:29;;;;;;;1.90;1.48;;;16.80;99.90;;;;;;5049220;28;20204;-90
2022/07/29 05:22:59;;;;;;;1.13;1.02;;;16.90;99.90;;;;;;5035681;28;20184;-88
2022/07/29 05:25:25;;;;;;;1.50;1.13;;;17.10;99.90;;;;;;5045780;28;20180;-86
2022/07/29 05:27:52;;;;;;;1.65;1.20;;;17.10;99.90;;;;;;5019285;28;20323;-89
2022/07/29 05:30:17;;;;;;;0.80;0.80;;;17.20;99.90;;;;;;5037053;28;20180;-88
2022/07/29 05:32:43;;;;;;;1.13;1.02;;;17.30;99.90;;;;;;5036768;28;20831;-88
2022/07/29 05:35:09;;;;;;;1.27;1.05;;;17.40;99.90;;;;;;5019458;28;20662;-88
2022/07/29 05:37:35;;;;;;;2.40;1.65;;;17.50;99.90;;;;;;5003918;28;20185;-88
2022/07/29 05:40:02;;;;;;;1.48;1.20;;;17.60;99.90;;;;;;5037118;28;20205;-89
2022/07/29 05:42:28;;;;;;;1.17;0.85;;;17.70;99.90;;;;;;5022635;28;20240;-90
2022/07/29 05:44:55;;;;;;;2.30;1.00;;;17.80;99.90;;;;;;5001470;28;20177;-87
2022/07/29 05:47:21;;;;;;;1.58;1.00;;;17.90;99.90;;;;;;4999724;28;20193;-86
2022/07/29 05:49:46;;;;;;;4.57;2.28;;;18.00;99.90;;;;;;4999273;28;20689;-87
2022/07/29 05:52:13;;;;;;;1.05;0.93;;;18.10;99.90;;;;;;5016600;28;20219;-88
2022/07/29 05:54:39;;;;;;;1.08;0.95;;;18.20;99.90;;;;;;4997844;28;20174;-86
2022/07/29 05:57:05;;;;;;;2.05;1.02;;;18.30;99.90;;;;;;5000279;28;20676;-88
2022/07/29 05:59:34;;;;;;;2.08;1.00;;;18.40;99.90;;;;;;5014126;28;20205;-88
2022/07/29 06:02:00;;;;;;;1.35;1.10;;;18.50;99.90;;;;;;5015899;28;20202;-87
2022/07/29 06:04:26;;;;;;;1.27;1.00;;;18.60;99.90;;;;;;5015367;28;20264;-88
2022/07/29 06:06:51;;;;;;;5.15;1.52;;;18.70;99.90;;;;;;5016044;28;20188;-88
2022/07/29 06:09:17;;;;;;;1.88;1.00;;;18.70;99.90;;;;;;5006587;28;20181;-87
2022/07/29 06:11:42;;;;;;;1.60;1.38;;;18.80;99.90;;;;;;4997887;28;20189;-88
2022/07/29 06:14:08;;;;;;;1.20;1.10;;;18.80;99.90;;;;;;5009130;28;20650;-89
2022/07/29 06:16:34;;;;;;;1.77;1.30;;;18.90;99.90;;;;;;5002415;28;20246;-89
2022/07/29 06:18:59;;;;;;;2.75;1.10;;;18.90;99.90;;;;;;5033623;28;22195;-88
2022/07/29 06:21:25;;;;;;;0.98;0.88;;;19.10;99.90;;;;;;5009430;28;20173;-88
2022/07/29 06:23:50;;;;;;;1.98;0.88;;;19.20;99.90;;;;;;5008472;28;20184;-88
2022/07/29 06:26:16;;;;;;;3.58;1.80;;;19.40;99.90;;;;;;5007562;28;20181;-87
2022/07/29 06:28:42;;;;;;;3.35;2.05;;;19.50;99.90;;;;;;4993237;28;20266;-88
2022/07/29 06:31:08;;;;;;;3.00;1.48;;;19.50;99.90;;;;;;4997883;28;20268;-90
2022/07/29 06:33:33;;;;;;;0.93;0.80;;;19.60;99.90;;;;;;5000115;28;20720;-89
2022/07/29 06:35:59;;;;;;;0.70;0.70;;;19.70;99.90;;;;;;5003847;28;20181;-89
2022/07/29 06:38:25;;;;;;;1.33;1.05;;;19.80;99.90;;;;;;5009131;28;20197;-91
2022/07/29 06:41:04;;;;;;;0.70;0.70;;;19.90;99.90;;;;;;5023224;28;20689;-88
2022/07/29 06:43:40;;;;;;;0.75;0.70;;;20.00;99.90;;;;;;5000681;28;20613;-89
2022/07/29 06:46:13;;;;;;;1.20;0.82;;;20.00;99.90;;;;;;5022065;28;20231;-90
2022/07/29 06:48:40;;;;;;;0.57;0.57;;;20.20;99.90;;;;;;5024991;28;20173;-91
2022/07/29 06:51:06;;;;;;;0.70;0.70;;;20.20;99.90;;;;;;5012547;28;20180;-88
2022/07/29 06:53:32;;;;;;;0.77;0.70;;;20.30;99.90;;;;;;5009369;28;20542;-90
2022/07/29 06:55:59;;;;;;;0.60;0.60;;;20.40;99.90;;;;;;4992186;28;20182;-90
2022/07/29 06:58:26;;;;;;;1.17;0.77;;;20.40;99.90;;;;;;5024985;28;20220;-91
2022/07/29 07:00:52;;;;;;;3.97;1.13;;;20.50;99.90;;;;;;5004808;28;20201;-90
2022/07/29 07:03:18;;;;;;;1.60;0.63;;;20.50;99.90;;;;;;5023329;28;20272;-89
2022/07/29 07:05:45;;;;;;;0.93;0.70;;;20.60;99.90;;;;;;5014697;28;20183;-89
2022/07/29 07:08:11;;;;;;;0.90;0.70;;;20.60;99.90;;;;;;5008361;28;20188;-90
2022/07/29 07:10:38;;;;;;;1.35;1.05;;;20.80;99.90;;;;;;5030648;28;20188;-88
2022/07/29 07:13:04;;;;;;;0.90;0.90;;;20.90;99.90;;;;;;5017836;28;20221;-89
2022/07/29 07:15:30;;;;;;;1.10;0.80;;;20.90;99.90;;;;;;4996547;28;20661;-90
2022/07/29 07:17:57;;;;;;;0.80;0.70;;;21.00;99.90;;;;;;5014668;28;20177;-90
2022/07/29 07:20:23;;;;;;;2.55;1.00;;;21.10;99.90;;;;;;4997002;28;20571;-89
2022/07/29 07:22:49;;;;;;;1.30;0.90;;;21.30;99.90;;;;;;4981414;28;20173;-90
2022/07/29 07:25:14;;;;;;;0.60;0.60;;;21.40;99.90;;;;;;5015959;28;20197;-88
2022/07/29 07:27:40;;;;;;;0.70;0.60;;;21.40;99.90;;;;;;4980906;28;20303;-88
2022/07/29 07:30:07;;;;;;;1.10;0.82;;;21.30;99.90;;;;;;4981378;28;20239;-89
2022/07/29 07:32:33;;;;;;;0.50;0.50;;;21.40;99.90;;;;;;5026553;28;20177;-89
2022/07/29 07:34:59;;;;;;;1.88;0.93;;;21.50;99.90;;;;;;4998425;28;20176;-90
2022/07/29 07:37:26;;;;;;;1.40;0.70;;;21.60;99.90;;;;;;5013158;28;20181;-90
2022/07/29 07:39:52;;;;;;;0.70;0.70;;;21.60;99.90;;;;;;5042836;28;20188;-89
2022/07/29 07:42:19;;;;;;;0.43;0.30;;;21.80;99.90;;;;;;5035792;28;20746;-91
2022/07/29 07:44:48;;;;;;;0.98;0.73;;;22.00;99.90;;;;;;5016680;28;20239;-88
2022/07/29 07:47:14;;;;;;;1.48;0.60;;;22.10;99.90;;;;;;5022551;28;20553;-88
2022/07/29 07:49:40;;;;;;;0.52;0.40;;;22.20;99.90;;;;;;5008757;28;20435;-87
2022/07/29 07:52:06;;;;;;;2.97;0.65;;;22.30;99.90;;;;;;5022984;28;20185;-89
2022/07/29 07:54:32;;;;;;;0.95;0.90;;;22.40;99.90;;;;;;5023598;28;20265;-90
2022/07/29 07:56:57;;;;;;;0.68;0.50;;;22.50;99.90;;;;;;5009996;28;20203;-88
2022/07/29 07:59:23;;;;;;;1.40;0.40;;;22.60;99.90;;;;;;5008860;28;20691;-88
2022/07/29 08:01:49;;;;;;;1.83;0.43;;;22.70;99.90;;;;;;5022517;28;20199;-90
2022/07/29 08:04:15;;;;;;;3.75;2.20;;;22.70;99.60;;;;;;4980938;28;20184;-90
2022/07/29 08:06:41;;;;;;;0.55;0.50;;;22.60;99.00;;;;;;5014167;28;20534;-89
2022/07/29 08:09:06;;;;;;;1.10;1.00;;;22.60;97.70;;;;;;4997875;28;20753;-88
2022/07/29 08:11:32;;;;;;;0.50;0.50;;;22.60;98.80;;;;;;5015332;28;20177;-88
2022/07/29 08:13:58;;;;;;;0.63;0.50;;;22.70;98.00;;;;;;4983748;28;20236;-90
2022/07/29 08:16:24;;;;;;;0.50;0.50;;;22.70;97.60;;;;;;5016017;28;20657;-87
2022/07/29 08:18:51;;;;;;;0.55;0.43;;;22.80;97.10;;;;;;5013003;28;20185;-89
2022/07/29 08:21:17;;;;;;;1.17;0.40;;;22.90;96.50;;;;;;5013618;28;20220;-89
2022/07/29 08:23:49;;;;;;;2.00;0.93;;;22.90;94.30;;;;;;4981125;28;20177;-90
2022/07/29 08:26:15;;;;;;;0.40;0.40;;;23.10;96.20;;;;;;4999248;28;20239;-90
2022/07/29 08:28:45;;;;;;;0.30;0.30;;;23.10;94.90;;;;;;5013421;28;20587;-88
2022/07/29 08:31:12;;;;;;;0.30;0.30;;;23.20;93.90;;;;;;5015265;28;20288;-88
2022/07/29 08:33:38;;;;;;;3.00;0.90;;;23.20;94.30;;;;;;5032162;28;20247;-86
2022/07/29 08:36:05;;;;;;;0.93;0.50;;;23.20;94.80;;;;;;5026483;28;20177;-88
2022/07/29 08:38:31;;;;;;;1.13;0.60;;;23.40;94.50;;;;;;5037155;28;20191;-88
2022/07/29 08:40:59;;;;;;;0.75;0.75;;;23.40;94.00;;;;;;5018376;28;20209;-90
2022/07/29 08:43:25;;;;;;;0.47;0.38;;;23.30;92.30;;;;;;4998849;28;20239;-91
2022/07/29 08:45:51;;;;;;;0.47;0.47;;;23.30;92.80;;;;;;4995286;28;20185;-89
2022/07/29 08:48:22;;;;;;;0.60;0.60;;;23.40;91.50;;;;;;4996324;28;20189;-90
2022/07/29 08:50:54;;;;;;;1.05;0.60;;;23.40;90.50;;;;;;5012689;28;20965;-88
2022/07/29 08:53:21;;;;;;;0.90;0.60;;;23.50;88.40;;;;;;5013294;28;20611;-91
2022/07/29 08:55:49;;;;;;;0.57;0.40;;;23.50;90.70;;;;;;5000496;28;20173;-90
2022/07/29 08:58:15;;;;;;;0.88;0.70;;;23.70;89.40;;;;;;4999679;28;20629;-90
2022/07/29 09:00:44;;;;;;;1.98;0.60;;;23.70;89.70;;;;;;5015046;28;20243;-91
2022/07/29 09:03:14;;;;;;;0.60;0.45;;;23.90;89.10;;;;;;5035047;28;20177;-89
2022/07/29 09:05:42;;;;;;;1.27;0.80;;;23.90;89.70;;;;;;5018734;28;20200;-90
2022/07/29 09:08:08;;;;;;;1.13;0.55;;;24.00;86.60;;;;;;5019319;28;20256;-91
2022/07/29 09:10:35;;;;;;;0.60;0.57;;;24.10;87.50;;;;;;5018928;28;20647;-91
2022/07/29 09:13:01;;;;;;;0.40;0.40;;;24.10;86.40;;;;;;5035737;28;20195;-91
2022/07/29 09:15:27;;;;;;;0.80;0.55;;;24.10;85.90;;;;;;5019514;28;20260;-90
2022/07/29 09:17:52;;;;;;;1.17;0.82;;;24.30;86.90;;;;;;5031061;28;20239;-91
2022/07/29 09:20:22;;;;;;;0.50;0.40;;;24.40;83.30;;;;;;5009640;28;20204;-89
2022/07/29 09:22:49;;;;;;;0.55;0.55;;;24.30;82.30;;;;;;5026829;28;20612;-88
2022/07/29 09:25:31;;;;;;;0.75;0.50;;;24.40;81.10;;;;;;5024189;28;20228;-88
2022/07/29 09:28:06;;;;;;;0.40;0.40;;;24.40;81.90;;;;;;5010469;28;20204;-90
2022/07/29 09:30:31;;;;;;;0.52;0.50;;;24.60;81.90;;;;;;4999067;28;20544;-90
2022/07/29 09:33:01;;;;;;;1.52;0.55;;;24.80;81.30;;;;;;5009471;28;20312;-89
2022/07/29 09:35:27;;;;;;;0.30;0.30;;;24.80;77.80;;;;;;5027098;28;20188;-89
2022/07/29 09:37:53;;;;;;;0.63;0.63;;;24.80;79.10;;;;;;5031195;28;20284;-90
2022/07/29 09:40:24;;;;;;;0.85;0.75;;;25.00;79.60;;;;;;4992809;28;20300;-90
2022/07/29 09:42:53;;;;;;;0.40;0.40;;;25.10;79.20;;;;;;5016372;28;20170;-88
2022/07/29 09:45:32;;;;;;;0.40;0.40;;;25.10;78.00;;;;;;5016351;28;20665;-88
2022/07/29 09:48:02;;;;;;;0.35;0.35;;;25.10;78.00;;;;;;4998730;28;20177;-88
2022/07/29 09:50:41;;;;;;;1.02;0.50;;;25.20;78.10;;;;;;5016405;28;20181;-89
2022/07/29 09:53:09;;;;;;;0.80;0.70;;;25.20;79.30;;;;;;5015213;28;20592;-89
2022/07/29 09:55:49;;;;;;;1.52;0.80;;;25.30;78.20;;;;;;5014789;28;20235;-89
2022/07/29 09:58:20;;;;;;;0.63;0.63;;;25.30;78.90;;;;;;5014794;28;20544;-90
2022/07/29 10:00:47;;;;;;;0.77;0.60;;;25.40;78.30;;;;;;5016109;28;20201;-88
2022/07/29 10:03:15;;;;;;;0.50;0.50;;;25.40;77.50;;;;;;5000689;28;20181;-90
2022/07/29 10:05:45;;;;;;;1.60;0.52;;;25.50;80.30;;;;;;5017866;28;20200;-88
2022/07/29 10:08:12;;;;;;;0.30;0.30;;;25.70;78.40;;;;;;5016741;28;20181;-88
2022/07/29 10:10:41;;;;;;;0.30;0.30;;;24.50;76.80;;;;;;4998027;28;20651;-86
2022/07/29 10:13:14;;;;;;;2.13;1.00;;;25.80;79.40;;;;;;5016159;28;20177;-89
2022/07/29 10:15:43;;;;;;;0.70;0.47;;;25.90;77.50;;;;;;5014747;28;20184;-88
2022/07/29 10:18:11;;;;;;;0.47;0.47;;;26.00;75.50;;;;;;4998246;28;20638;-88
2022/07/29 10:20:37;;;;;;;0.52;0.50;;;26.20;76.00;;;;;;5015871;28;20294;-89
2022/07/29 10:23:04;;;;;;;0.80;0.57;;;26.20;75.90;;;;;;5013375;28;20196;-89
2022/07/29 10:25:30;;;;;;;1.25;0.75;;;26.50;76.10;;;;;;5010076;28;20172;-89
2022/07/29 10:27:57;;;;;;;2.33;0.82;;;26.70;75.60;;;;;;5007236;28;20271;-89
2022/07/29 10:30:24;;;;;;;0.98;0.50;;;26.70;74.20;;;;;;5023403;28;20181;-89
2022/07/29 10:33:23;;;;;;;2.72;1.50;;;26.60;74.10;;;;;;4999243;28;20224;-88
2022/07/29 10:36:12;;;;;;;0.68;0.35;;;26.70;69.60;;;;;;5018223;28;20267;-88
2022/07/29 10:39:02;;;;;;;0.75;0.60;;;26.70;69.80;;;;;;5012006;28;20193;-88
2022/07/29 10:41:48;;;;;;;0.38;0.38;;;26.70;70.80;;;;;;5024976;28;20185;-89
2022/07/29 10:44:22;;;;;;;0.50;0.50;;;26.90;71.00;;;;;;5015642;28;20177;-88
2022/07/29 10:46:49;;;;;;;0.60;0.60;;;27.00;67.80;;;;;;5013823;28;20181;-92
2022/07/29 10:49:16;;;;;;;0.40;0.40;;;27.10;69.90;;;;;;4997980;28;20220;-88
2022/07/29 10:51:51;;;;;;;0.82;0.30;;;27.10;72.70;;;;;;5015615;28;20173;-87
2022/07/29 10:54:18;;;;;;;0.68;0.40;;;27.30;69.00;;;;;;5015728;28;20211;-88
2022/07/29 10:56:44;;;;;;;1.50;0.40;;;27.40;70.20;;;;;;5013895;28;20192;-87
2022/07/29 10:59:21;;;;;;;0.43;0.40;;;27.40;67.80;;;;;;4997116;28;20189;-88
2022/07/29 11:01:51;;;;;;;0.45;0.40;;;27.40;67.30;;;;;;4996940;28;20235;-87
2022/07/29 11:04:45;;;;;;;0.40;0.40;;;27.30;68.50;;;;;;5015604;28;20227;-88
2022/07/29 11:07:12;;;;;;;0.68;0.60;;;27.60;67.00;;;;;;5014963;28;20184;-87
2022/07/29 11:09:38;;;;;;;0.85;0.65;;;27.50;66.60;;;;;;4997485;28;20280;-87
2022/07/29 11:12:24;;;;;;;0.40;0.40;;;27.50;65.90;;;;;;5014708;28;20209;-87
2022/07/29 11:15:01;;;;;;;0.65;0.50;;;27.50;65.20;;;;;;5014884;28;20216;-87
2022/07/29 11:17:27;;;;;;;2.15;0.80;;;27.60;66.80;;;;;;5015043;28;20161;-87
2022/07/29 11:20:31;;;;;;;0.50;0.50;;;27.80;66.90;;;;;;5015327;28;20235;-87
2022/07/29 11:22:57;;;;;;;0.70;0.60;;;27.90;65.00;;;;;;5017022;28;20170;-87
2022/07/29 11:25:23;;;;;;;0.70;0.60;;;28.00;62.90;;;;;;5014993;28;20692;-87
2022/07/29 11:27:51;;;;;;;1.20;0.50;;;27.90;64.00;;;;;;5020102;28;20185;-86
2022/07/29 11:30:17;;;;;;;0.50;0.50;;;27.90;62.90;;;;;;4997941;28;20185;-87
2022/07/29 11:32:45;;;;;;;1.67;0.88;;;27.90;62.20;;;;;;5014330;28;20232;-88
2022/07/29 11:35:23;;;;;;;1.23;0.40;;;27.70;63.00;;;;;;5014256;28;20173;-87
2022/07/29 11:38:22;;;;;;;0.85;0.52;;;27.70;62.20;;;;;;5014579;28;20206;-87
2022/07/29 11:41:26;;;;;;;0.40;0.40;;;27.40;63.40;;;;;;4996425;28;20224;-87
2022/07/29 11:43:54;;;;;;;2.97;0.80;;;27.40;61.90;;;;;;5013835;28;20268;-87
2022/07/29 11:46:46;;;;;;;0.30;0.30;;;27.50;64.10;;;;;;5016540;28;20178;-86
2022/07/29 11:49:13;;;;;;;0.50;0.50;;;27.40;61.50;;;;;;5014059;28;20174;-86
2022/07/29 11:51:39;;;;;;;1.25;0.60;;;27.30;61.90;;;;;;5013943;28;20256;-87
2022/07/29 11:54:05;;;;;;;1.63;0.85;;;27.40;62.30;;;;;;5013609;28;20169;-86
2022/07/29 11:56:38;;;;;;;1.55;0.60;;;27.50;61.50;;;;;;4996270;28;20197;-88
2022/07/29 11:59:06;;;;;;;0.52;0.52;;;27.50;63.20;;;;;;4996012;28;20590;-86
2022/07/29 12:01:32;;;;;;;1.08;0.55;;;27.50;63.40;;;;;;5013972;28;20189;-85
2022/07/29 12:04:07;;;;;;;0.57;0.40;;;27.50;62.20;;;;;;4995914;28;20559;-86
2022/07/29 12:06:34;;;;;;;0.60;0.57;;;27.10;63.00;;;;;;5013747;28;20184;-87
2022/07/29 12:09:00;;;;;;;3.83;1.00;;;27.00;63.50;;;;;;5013368;28;20220;-86
2022/07/29 12:11:26;;;;;;;0.30;0.30;;;27.00;63.00;;;;;;5013496;28;20177;-86
2022/07/29 12:13:52;;;;;;;0.55;0.45;;;27.00;63.00;;;;;;5013742;28;20207;-86
2022/07/29 12:16:19;;;;;;;0.50;0.50;;;27.10;62.20;;;;;;5023397;28;20654;-86
2022/07/29 12:19:00;;;;;;;0.50;0.50;;;27.10;64.00;;;;;;5001819;28;20188;-87
2022/07/29 12:21:26;;;;;;;1.88;0.77;;;27.20;62.60;;;;;;5023607;28;20180;-86
2022/07/29 12:23:54;;;;;;;0.57;0.50;;;27.30;61.30;;;;;;5022682;28;20173;-86
2022/07/29 12:26:19;;;;;;;0.60;0.50;;;27.20;61.20;;;;;;5023409;28;20184;-86
2022/07/29 12:28:45;;;;;;;2.13;1.30;;;27.20;61.70;;;;;;4990112;28;20187;-87
2022/07/29 12:31:15;;;;;;;0.30;0.30;;;27.30;62.30;;;;;;5021986;28;20679;-87
2022/07/29 12:33:41;;;;;;;0.40;0.40;;;27.20;61.20;;;;;;4991439;28;20266;-87
2022/07/29 12:36:07;;;;;;;0.60;0.60;;;27.20;62.10;;;;;;5006399;28;20176;-86
2022/07/29 12:38:34;;;;;;;0.73;0.73;;;27.10;62.30;;;;;;5007162;28;20181;-87
2022/07/29 12:41:00;;;;;;;1.17;0.57;;;27.20;61.90;;;;;;5012124;28;20215;-87
2022/07/29 12:43:26;;;;;;;0.70;0.70;;;27.20;62.80;;;;;;5025201;28;20543;-87
2022/07/29 12:45:55;;;;;;;0.65;0.65;;;27.20;61.60;;;;;;5024494;28;20172;-87
2022/07/29 12:48:37;;;;;;;0.50;0.50;;;27.20;62.00;;;;;;5008786;28;20437;-88
2022/07/29 12:51:05;;;;;;;0.70;0.70;;;27.30;60.40;;;;;;5026472;28;20176;-86
2022/07/29 12:53:31;;;;;;;0.47;0.47;;;27.30;61.30;;;;;;5008060;28;20651;-88
2022/07/29 12:56:01;;;;;;;1.00;0.70;;;27.30;61.10;;;;;;5000704;28;20239;-87
2022/07/29 12:58:27;;;;;;;0.57;0.57;;;27.40;60.90;;;;;;5026922;28;20263;-90